createdAt,value
2023-03-06T00:00:39.251Z,984.86
2023-03-06T00:01:39.258Z,984.82
2023-03-06T00:02:39.239Z,984.74
2023-03-06T00:03:39.267Z,984.80
2023-03-06T00:04:39.247Z,984.76
2023-03-06T00:05:39.256Z,984.74
2023-03-06T00:06:39.229Z,984.72
2023-03-06T00:07:39.216Z,984.76
2023-03-06T00:08:39.206Z,984.75
2023-03-06T00:09:39.198Z,984.74
2023-03-06T00:10:39.194Z,984.72
2023-03-06T00:11:39.206Z,984.76
2023-03-06T00:12:39.176Z,984.66
2023-03-06T00:13:39.172Z,984.70
2023-03-06T00:14:39.169Z,984.70
2023-03-06T00:15:39.167Z,984.63
2023-03-06T00:16:39.141Z,984.55
2023-03-06T00:17:39.150Z,984.64
2023-03-06T00:18:39.131Z,984.64
2023-03-06T00:19:39.142Z,984.65
2023-03-06T00:20:39.138Z,984.50
2023-03-06T00:21:39.105Z,984.51
2023-03-06T00:22:39.104Z,984.54
2023-03-06T00:23:39.101Z,984.52
2023-03-06T00:24:39.092Z,984.48
2023-03-06T00:25:39.120Z,984.49
2023-03-06T00:26:39.105Z,984.49
2023-03-06T00:27:39.077Z,984.48
2023-03-06T00:28:39.073Z,984.51
2023-03-06T00:29:39.056Z,984.45
2023-03-06T00:30:39.054Z,984.48
2023-03-06T00:31:39.110Z,984.52
2023-03-06T00:32:39.046Z,984.50
2023-03-06T00:33:39.034Z,984.46
2023-03-06T00:34:39.031Z,984.43
2023-03-06T00:35:39.041Z,984.46
2023-03-06T00:36:39.026Z,984.43
2023-03-06T00:37:39.034Z,984.45
2023-03-06T00:38:39.004Z,984.41
2023-03-06T00:39:38.997Z,984.37
2023-03-06T00:40:39.005Z,984.41
2023-03-06T00:41:38.981Z,984.36
2023-03-06T00:42:38.992Z,984.39
2023-03-06T00:43:38.964Z,984.34
2023-03-06T00:44:38.959Z,984.26
2023-03-06T00:45:39.025Z,984.32
2023-03-06T00:46:38.947Z,984.30
2023-03-06T00:47:38.965Z,984.28
2023-03-06T00:48:38.932Z,984.26
2023-03-06T00:49:38.931Z,984.28
2023-03-06T00:50:39.920Z,984.30
2023-03-06T00:51:38.912Z,984.30
2023-03-06T00:52:38.915Z,984.24
2023-03-06T00:53:38.902Z,984.25
2023-03-06T00:54:38.896Z,984.25
2023-03-06T00:55:38.887Z,984.26
2023-03-06T00:56:38.896Z,984.30
2023-03-06T00:57:38.882Z,984.27
2023-03-06T00:58:38.889Z,984.32
2023-03-06T00:59:38.871Z,984.24
2023-03-06T01:00:38.886Z,984.27
2023-03-06T01:01:38.847Z,984.25
2023-03-06T01:02:38.854Z,984.24
2023-03-06T01:03:38.840Z,984.22
2023-03-06T01:04:38.853Z,984.25
2023-03-06T01:05:39.830Z,984.29
2023-03-06T01:06:38.814Z,984.23
2023-03-06T01:07:38.807Z,984.28
2023-03-06T01:08:38.799Z,984.16
2023-03-06T01:09:38.812Z,984.17
2023-03-06T01:10:38.789Z,984.15
2023-03-06T01:11:38.788Z,984.11
2023-03-06T01:12:38.792Z,984.12
2023-03-06T01:13:38.768Z,984.14
2023-03-06T01:14:38.784Z,984.12
2023-03-06T01:15:38.755Z,984.04
2023-03-06T01:16:38.768Z,984.07
2023-03-06T01:17:38.731Z,984.03
2023-03-06T01:18:38.730Z,984.02
2023-03-06T01:19:38.738Z,984.03
2023-03-06T01:20:38.732Z,984.03
2023-03-06T01:21:38.718Z,983.93
2023-03-06T01:22:38.712Z,983.92
2023-03-06T01:23:38.723Z,983.84
2023-03-06T01:24:38.715Z,983.93
2023-03-06T01:25:38.686Z,983.91
2023-03-06T01:26:38.677Z,983.91
2023-03-06T01:27:38.698Z,983.88
2023-03-06T01:28:38.661Z,983.91
2023-03-06T01:29:38.663Z,983.90
2023-03-06T01:30:38.662Z,983.77
2023-03-06T01:31:38.693Z,983.82
2023-03-06T01:32:38.713Z,983.78
2023-03-06T01:33:38.636Z,983.79
2023-03-06T01:34:38.625Z,983.76
2023-03-06T01:35:38.660Z,983.73
2023-03-06T01:36:38.610Z,983.76
2023-03-06T01:37:38.603Z,983.71
2023-03-06T01:38:38.598Z,983.75
2023-03-06T01:39:38.588Z,983.67
2023-03-06T01:40:38.608Z,983.61
2023-03-06T01:41:38.580Z,983.64
2023-03-06T01:42:38.577Z,983.58
2023-03-06T01:43:38.570Z,983.58
2023-03-06T01:44:38.558Z,983.64
2023-03-06T01:45:38.580Z,983.61
2023-03-06T01:46:38.555Z,983.55
2023-03-06T01:47:39.569Z,983.61
2023-03-06T01:48:38.539Z,983.62
2023-03-06T01:49:38.538Z,983.61
2023-03-06T01:50:38.539Z,983.54
2023-03-06T01:51:38.559Z,983.53
2023-03-06T01:52:38.520Z,983.54
2023-03-06T01:53:38.511Z,983.60
2023-03-06T01:54:38.513Z,983.49
2023-03-06T01:55:38.503Z,983.45
2023-03-06T01:56:38.495Z,983.51
2023-03-06T01:57:38.487Z,983.49
2023-03-06T01:58:38.491Z,983.46
2023-03-06T01:59:38.476Z,983.46
2023-03-06T02:00:38.464Z,983.43
2023-03-06T02:01:38.452Z,983.41
2023-03-06T02:02:38.477Z,983.41
2023-03-06T02:03:38.459Z,983.42
2023-03-06T02:04:38.434Z,983.41
2023-03-06T02:05:38.428Z,983.37
2023-03-06T02:06:38.434Z,983.38
2023-03-06T02:07:38.452Z,983.37
2023-03-06T02:08:38.413Z,983.29
2023-03-06T02:09:38.408Z,983.31
2023-03-06T02:10:38.396Z,983.32
2023-03-06T02:11:38.481Z,983.31
2023-03-06T02:12:38.381Z,983.28
2023-03-06T02:13:38.394Z,983.31
2023-03-06T02:14:38.364Z,983.25
2023-03-06T02:15:38.361Z,983.29
2023-03-06T02:16:38.432Z,983.29
2023-03-06T02:17:38.345Z,983.21
2023-03-06T02:18:38.350Z,983.26
2023-03-06T02:19:38.350Z,983.25
2023-03-06T02:20:38.339Z,983.26
2023-03-06T02:21:38.346Z,983.23
2023-03-06T02:22:38.306Z,983.25
2023-03-06T02:23:38.301Z,983.24
2023-03-06T02:24:38.311Z,983.23
2023-03-06T02:25:38.309Z,983.24
2023-03-06T02:26:38.289Z,983.27
2023-03-06T02:27:38.293Z,983.30
2023-03-06T02:28:38.279Z,983.29
2023-03-06T02:29:38.275Z,983.28
2023-03-06T02:30:38.325Z,983.29
2023-03-06T02:31:38.244Z,983.24
2023-03-06T02:32:38.314Z,983.27
2023-03-06T02:33:38.250Z,983.22
2023-03-06T02:34:38.251Z,983.24
2023-03-06T02:35:38.297Z,983.16
2023-03-06T02:36:38.230Z,983.16
2023-03-06T02:37:38.241Z,983.08
2023-03-06T02:38:38.202Z,983.20
2023-03-06T02:39:38.216Z,983.19
2023-03-06T02:40:38.210Z,983.13
2023-03-06T02:41:38.192Z,983.12
2023-03-06T02:42:38.200Z,983.04
2023-03-06T02:43:38.189Z,983.06
2023-03-06T02:44:38.192Z,983.10
2023-03-06T02:45:38.169Z,983.07
2023-03-06T02:46:38.156Z,983.05
2023-03-06T02:47:38.184Z,983.05
2023-03-06T02:48:38.159Z,983.03
2023-03-06T02:49:38.141Z,983.02
2023-03-06T02:50:38.123Z,983.01
2023-03-06T02:51:38.127Z,982.98
2023-03-06T02:52:38.141Z,982.99
2023-03-06T02:53:38.113Z,982.97
2023-03-06T02:54:38.105Z,982.98
2023-03-06T02:55:38.101Z,983.00
2023-03-06T02:56:38.108Z,982.98
2023-03-06T02:57:38.098Z,982.91
2023-03-06T02:58:38.094Z,982.99
2023-03-06T02:59:38.071Z,982.89
2023-03-06T03:00:39.452Z,982.91
2023-03-06T03:01:38.127Z,982.87
2023-03-06T03:02:38.059Z,982.93
2023-03-06T03:03:38.056Z,982.91
2023-03-06T03:04:38.079Z,982.99
2023-03-06T03:05:38.030Z,982.91
2023-03-06T03:06:38.025Z,982.88
2023-03-06T03:07:38.015Z,982.84
2023-03-06T03:08:38.040Z,982.84
2023-03-06T03:09:38.006Z,982.84
2023-03-06T03:10:38.000Z,982.84
2023-03-06T03:11:37.994Z,982.87
2023-03-06T03:12:37.986Z,982.84
2023-03-06T03:13:38.003Z,982.79
2023-03-06T03:14:37.970Z,982.81
2023-03-06T03:15:38.041Z,982.77
2023-03-06T03:16:39.195Z,982.75
2023-03-06T03:17:38.933Z,982.77
2023-03-06T03:18:37.969Z,982.79
2023-03-06T03:19:37.935Z,982.68
2023-03-06T03:20:37.932Z,982.70
2023-03-06T03:21:37.918Z,982.66
2023-03-06T03:22:37.922Z,982.77
2023-03-06T03:23:37.920Z,982.66
2023-03-06T03:24:37.989Z,982.74
2023-03-06T03:25:37.898Z,982.65
2023-03-06T03:26:37.894Z,982.71
2023-03-06T03:27:37.895Z,982.76
2023-03-06T03:28:37.886Z,982.68
2023-03-06T03:29:37.884Z,982.74
2023-03-06T03:30:37.858Z,982.65
2023-03-06T03:31:37.853Z,982.70
2023-03-06T03:32:37.897Z,982.62
2023-03-06T03:33:37.859Z,982.62
2023-03-06T03:34:37.858Z,982.59
2023-03-06T03:35:37.856Z,982.63
2023-03-06T03:36:37.830Z,982.63
2023-03-06T03:37:37.832Z,982.61
2023-03-06T03:38:37.816Z,982.61
2023-03-06T03:39:37.822Z,982.61
2023-03-06T03:40:37.814Z,982.60
2023-03-06T03:41:37.796Z,982.58
2023-03-06T03:42:37.798Z,982.56
2023-03-06T03:43:37.775Z,982.58
2023-03-06T03:44:37.773Z,982.60
2023-03-06T03:45:37.774Z,982.55
2023-03-06T03:46:37.753Z,982.52
2023-03-06T03:47:37.745Z,982.52
2023-03-06T03:48:37.776Z,982.54
2023-03-06T03:49:37.753Z,982.50
2023-03-06T03:50:37.734Z,982.56
2023-03-06T03:51:37.723Z,982.53
2023-03-06T03:52:37.711Z,982.50
2023-03-06T03:53:37.717Z,982.49
2023-03-06T03:54:37.713Z,982.48
2023-03-06T03:55:37.698Z,982.52
2023-03-06T03:56:37.690Z,982.44
2023-03-06T03:57:37.675Z,982.49
2023-03-06T03:58:37.670Z,982.41
2023-03-06T03:59:37.670Z,982.43
2023-03-06T04:00:37.653Z,982.43
2023-03-06T04:01:39.787Z,982.43
2023-03-06T04:02:38.642Z,982.35
2023-03-06T04:03:37.630Z,982.38
2023-03-06T04:04:37.669Z,982.34
2023-03-06T04:05:37.621Z,982.36
2023-03-06T04:06:37.624Z,982.35
2023-03-06T04:07:37.620Z,982.33
2023-03-06T04:08:37.597Z,982.32
2023-03-06T04:09:37.608Z,982.32
2023-03-06T04:10:37.581Z,982.28
2023-03-06T04:11:37.588Z,982.28
2023-03-06T04:12:37.570Z,982.26
2023-03-06T04:13:37.572Z,982.23
2023-03-06T04:14:37.589Z,982.26
2023-03-06T04:15:37.553Z,982.25
2023-03-06T04:16:37.543Z,982.19
2023-03-06T04:17:37.535Z,982.18
2023-03-06T04:18:37.523Z,982.16
2023-03-06T04:19:37.531Z,982.18
2023-03-06T04:20:37.543Z,982.19
2023-03-06T04:21:37.528Z,982.25
2023-03-06T04:22:37.500Z,982.18
2023-03-06T04:23:37.500Z,982.20
2023-03-06T04:24:37.512Z,982.22
2023-03-06T04:25:37.514Z,982.17
2023-03-06T04:26:37.485Z,982.12
2023-03-06T04:27:37.480Z,982.14
2023-03-06T04:28:37.468Z,982.18
2023-03-06T04:29:37.461Z,982.13
2023-03-06T04:30:37.447Z,982.09
2023-03-06T04:31:38.555Z,982.07
2023-03-06T04:32:37.465Z,982.05
2023-03-06T04:33:37.442Z,982.05
2023-03-06T04:34:37.428Z,982.02
2023-03-06T04:35:37.493Z,982.10
2023-03-06T04:36:37.447Z,982.02
2023-03-06T04:37:37.419Z,982.04
2023-03-06T04:38:37.425Z,982.08
2023-03-06T04:39:37.399Z,982.03
2023-03-06T04:40:37.403Z,982.04
2023-03-06T04:41:37.422Z,981.98
2023-03-06T04:42:37.382Z,982.04
2023-03-06T04:43:37.373Z,982.01
2023-03-06T04:44:37.372Z,982.04
2023-03-06T04:45:37.437Z,981.99
2023-03-06T04:46:37.373Z,981.99
2023-03-06T04:47:37.344Z,982.03
2023-03-06T04:48:37.332Z,982.02
2023-03-06T04:49:37.336Z,981.99
2023-03-06T04:50:37.329Z,981.98
2023-03-06T04:51:37.313Z,981.94
2023-03-06T04:52:37.328Z,981.96
2023-03-06T04:53:37.310Z,981.96
2023-03-06T04:54:37.289Z,981.93
2023-03-06T04:55:37.297Z,981.96
2023-03-06T04:56:37.285Z,981.94
2023-03-06T04:57:37.282Z,981.93
2023-03-06T04:58:37.269Z,981.95
2023-03-06T04:59:39.164Z,981.90
2023-03-06T05:00:38.279Z,981.91
2023-03-06T05:01:37.261Z,981.83
2023-03-06T05:02:37.243Z,981.83
2023-03-06T05:03:37.247Z,981.83
2023-03-06T05:04:37.234Z,981.91
2023-03-06T05:05:37.227Z,981.87
2023-03-06T05:06:37.211Z,981.85
2023-03-06T05:07:37.189Z,981.91
2023-03-06T05:08:37.200Z,981.84
2023-03-06T05:09:38.836Z,981.89
2023-03-06T05:10:38.208Z,981.85
2023-03-06T05:11:37.171Z,981.90
2023-03-06T05:12:37.168Z,981.86
2023-03-06T05:13:37.160Z,981.83
2023-03-06T05:14:37.144Z,981.86
2023-03-06T05:15:37.166Z,981.82
2023-03-06T05:16:37.207Z,981.83
2023-03-06T05:17:37.131Z,981.84
2023-03-06T05:18:37.129Z,981.78
2023-03-06T05:19:37.122Z,981.81
2023-03-06T05:20:37.137Z,981.82
2023-03-06T05:21:37.100Z,981.81
2023-03-06T05:22:37.129Z,981.78
2023-03-06T05:23:37.103Z,981.77
2023-03-06T05:24:37.089Z,981.72
2023-03-06T05:25:37.087Z,981.70
2023-03-06T05:26:37.071Z,981.70
2023-03-06T05:27:37.073Z,981.74
2023-03-06T05:28:37.058Z,981.69
2023-03-06T05:29:37.042Z,981.69
2023-03-06T05:30:37.058Z,981.66
2023-03-06T05:31:37.066Z,981.68
2023-03-06T05:32:37.090Z,981.69
2023-03-06T05:33:37.022Z,981.65
2023-03-06T05:34:37.018Z,981.70
2023-03-06T05:35:37.023Z,981.74
2023-03-06T05:36:37.014Z,981.66
2023-03-06T05:37:37.007Z,981.66
2023-03-06T05:38:36.996Z,981.70
2023-03-06T05:39:37.011Z,981.71
2023-03-06T05:40:36.990Z,981.71
2023-03-06T05:41:36.971Z,981.70
2023-03-06T05:42:36.970Z,981.67
2023-03-06T05:43:36.949Z,981.66
2023-03-06T05:44:36.947Z,981.66
2023-03-06T05:45:36.972Z,981.62
2023-03-06T05:46:36.938Z,981.67
2023-03-06T05:47:36.932Z,981.61
2023-03-06T05:48:36.921Z,981.61
2023-03-06T05:49:36.910Z,981.64
2023-03-06T05:50:36.911Z,981.59
2023-03-06T05:51:36.910Z,981.63
2023-03-06T05:52:36.897Z,981.64
2023-03-06T05:53:36.907Z,981.58
2023-03-06T05:54:36.907Z,981.60
2023-03-06T05:55:36.871Z,981.59
2023-03-06T05:56:36.873Z,981.62
2023-03-06T05:57:36.889Z,981.62
2023-03-06T05:58:36.846Z,981.68
2023-03-06T05:59:36.883Z,981.67
2023-03-06T06:00:36.833Z,981.64
2023-03-06T06:01:36.836Z,981.62
2023-03-06T06:02:36.831Z,981.60
2023-03-06T06:03:36.857Z,981.59
2023-03-06T06:04:36.804Z,981.64
2023-03-06T06:05:36.846Z,981.65
2023-03-06T06:06:36.792Z,981.60
2023-03-06T06:07:36.781Z,981.61
2023-03-06T06:08:36.783Z,981.61
2023-03-06T06:09:36.791Z,981.57
2023-03-06T06:10:36.760Z,981.61
2023-03-06T06:11:36.761Z,981.59
2023-03-06T06:12:36.751Z,981.58
2023-03-06T06:13:36.743Z,981.61
2023-03-06T06:14:36.747Z,981.57
2023-03-06T06:15:36.761Z,981.60
2023-03-06T06:16:36.727Z,981.58
2023-03-06T06:17:36.733Z,981.60
2023-03-06T06:18:38.157Z,981.61
2023-03-06T06:19:36.730Z,981.61
2023-03-06T06:20:36.704Z,981.64
2023-03-06T06:21:36.695Z,981.62
2023-03-06T06:22:36.702Z,981.59
2023-03-06T06:23:36.673Z,981.57
2023-03-06T06:24:36.700Z,981.58
2023-03-06T06:25:36.658Z,981.59
2023-03-06T06:26:36.660Z,981.57
2023-03-06T06:27:36.651Z,981.54
2023-03-06T06:28:36.675Z,981.52
2023-03-06T06:29:36.692Z,981.60
2023-03-06T06:30:36.642Z,981.55
2023-03-06T06:31:36.647Z,981.57
2023-03-06T06:32:36.713Z,981.55
2023-03-06T06:33:36.616Z,981.54
2023-03-06T06:34:36.604Z,981.52
2023-03-06T06:35:36.614Z,981.54
2023-03-06T06:36:36.608Z,981.55
2023-03-06T06:37:36.589Z,981.58
2023-03-06T06:38:36.588Z,981.59
2023-03-06T06:39:36.593Z,981.63
2023-03-06T06:40:36.665Z,981.58
2023-03-06T06:41:54.766Z,981.53
2023-03-06T06:42:40.286Z,981.58
2023-03-06T06:43:37.540Z,981.54
2023-03-06T06:44:36.548Z,981.56
2023-03-06T06:45:36.543Z,981.50
2023-03-06T06:47:38.629Z,981.50
2023-03-06T06:48:36.524Z,981.48
2023-03-06T06:49:36.513Z,981.44
2023-03-06T06:50:36.495Z,981.51
2023-03-06T06:51:36.500Z,981.44
2023-03-06T06:52:36.515Z,981.40
2023-03-06T06:53:36.482Z,981.44
2023-03-06T06:54:36.481Z,981.45
2023-03-06T06:55:36.475Z,981.45
2023-03-06T06:56:36.465Z,981.43
2023-03-06T06:57:36.489Z,981.41
2023-03-06T06:58:36.451Z,981.42
2023-03-06T06:59:36.452Z,981.41
2023-03-06T07:00:36.436Z,981.41
2023-03-06T07:01:36.479Z,981.36
2023-03-06T07:02:36.428Z,981.41
2023-03-06T07:03:36.475Z,981.48
2023-03-06T07:04:36.415Z,981.46
2023-03-06T07:05:36.404Z,981.49
2023-03-06T07:06:36.400Z,981.48
2023-03-06T07:07:36.558Z,981.50
2023-03-06T07:08:36.380Z,981.46
2023-03-06T07:09:36.411Z,981.48
2023-03-06T07:10:36.379Z,981.57
2023-03-06T07:11:36.368Z,981.54
2023-03-06T07:12:36.357Z,981.56
2023-03-06T07:13:36.349Z,981.58
2023-03-06T07:14:36.383Z,981.53
2023-03-06T07:15:36.360Z,981.56
2023-03-06T07:16:36.350Z,981.52
2023-03-06T07:17:36.330Z,981.58
2023-03-06T07:18:36.320Z,981.55
2023-03-06T07:19:37.393Z,981.59
2023-03-06T07:20:36.323Z,981.58
2023-03-06T07:21:36.296Z,981.58
2023-03-06T07:22:49.960Z,981.54
2023-03-06T07:23:38.296Z,981.59
2023-03-06T07:24:36.280Z,981.56
2023-03-06T07:25:36.298Z,981.59
2023-03-06T07:26:36.281Z,981.62
2023-03-06T07:27:36.297Z,981.60
2023-03-06T07:28:50.005Z,981.64
2023-03-06T07:29:38.241Z,981.58
2023-03-06T07:30:36.243Z,981.60
2023-03-06T07:31:36.275Z,981.58
2023-03-06T07:32:36.257Z,981.64
2023-03-06T07:33:36.245Z,981.60
2023-03-06T07:34:36.234Z,981.61
2023-03-06T07:35:36.237Z,981.58
2023-03-06T07:36:36.230Z,981.64
2023-03-06T07:37:36.193Z,981.57
2023-03-06T07:38:36.193Z,981.58
2023-03-06T07:39:36.190Z,981.60
2023-03-06T07:40:36.191Z,981.57
2023-03-06T07:41:36.167Z,981.68
2023-03-06T07:42:36.174Z,981.62
2023-03-06T07:43:36.154Z,981.70
2023-03-06T07:44:36.157Z,981.64
2023-03-06T07:45:36.151Z,981.66
2023-03-06T07:46:36.160Z,981.60
2023-03-06T07:47:36.126Z,981.57
2023-03-06T07:48:36.118Z,981.57
2023-03-06T07:49:36.359Z,981.61
2023-03-06T07:50:36.106Z,981.56
2023-03-06T07:51:36.098Z,981.65
2023-03-06T07:52:36.107Z,981.60
2023-03-06T07:53:36.099Z,981.69
2023-03-06T07:54:36.097Z,981.60
2023-03-06T07:55:36.079Z,981.59
2023-03-06T07:56:36.077Z,981.57
2023-03-06T07:57:36.067Z,981.59
2023-03-06T07:58:36.066Z,981.63
2023-03-06T07:59:36.050Z,981.61
2023-03-06T08:00:36.058Z,981.53
2023-03-06T08:01:36.050Z,981.53
2023-03-06T08:02:36.074Z,981.55
2023-03-06T08:03:36.050Z,981.62
2023-03-06T08:04:36.029Z,981.54
2023-03-06T08:05:36.015Z,981.53
2023-03-06T08:06:36.011Z,981.53
2023-03-06T08:07:36.015Z,981.52
2023-03-06T08:08:35.992Z,981.54
2023-03-06T08:09:36.008Z,981.53
2023-03-06T08:10:35.979Z,981.57
2023-03-06T08:11:35.958Z,981.55
2023-03-06T08:12:35.965Z,981.49
2023-03-06T08:13:35.949Z,981.56
2023-03-06T08:14:35.943Z,981.53
2023-03-06T08:15:35.937Z,981.51
2023-03-06T08:16:36.010Z,981.46
2023-03-06T08:17:35.939Z,981.44
2023-03-06T08:18:35.912Z,981.41
2023-03-06T08:19:35.908Z,981.52
2023-03-06T08:20:35.909Z,981.45
2023-03-06T08:21:35.898Z,981.44
2023-03-06T08:22:35.901Z,981.54
2023-03-06T08:23:35.907Z,981.48
2023-03-06T08:24:35.875Z,981.50
2023-03-06T08:25:35.862Z,981.51
2023-03-06T08:26:35.870Z,981.48
2023-03-06T08:27:35.900Z,981.47
2023-03-06T08:28:35.854Z,981.49
2023-03-06T08:29:35.849Z,981.47
2023-03-06T08:30:35.962Z,981.48
2023-03-06T08:31:35.883Z,981.49
2023-03-06T08:32:35.850Z,981.47
2023-03-06T08:33:35.805Z,981.51
2023-03-06T08:34:35.805Z,981.47
2023-03-06T08:35:36.683Z,981.42
2023-03-06T08:36:36.759Z,981.50
2023-03-06T08:37:36.733Z,981.47
2023-03-06T08:38:37.652Z,981.49
2023-03-06T08:39:35.853Z,981.44
2023-03-06T08:40:35.760Z,981.42
2023-03-06T08:41:35.752Z,981.41
2023-03-06T08:42:35.760Z,981.38
2023-03-06T08:43:35.765Z,981.35
2023-03-06T08:44:35.727Z,981.31
2023-03-06T08:45:35.789Z,981.36
2023-03-06T08:46:35.716Z,981.36
2023-03-06T08:47:35.737Z,981.37
2023-03-06T08:48:35.707Z,981.34
2023-03-06T08:49:35.691Z,981.37
2023-03-06T08:50:35.689Z,981.35
2023-03-06T08:51:35.679Z,981.40
2023-03-06T08:52:35.698Z,981.35
2023-03-06T08:53:43.070Z,981.39
2023-03-06T08:54:37.748Z,981.34
2023-03-06T08:55:35.663Z,981.40
2023-03-06T08:56:35.655Z,981.40
2023-03-06T08:57:35.646Z,981.42
2023-03-06T08:58:35.647Z,981.41
2023-03-06T08:59:35.664Z,981.37
2023-03-06T09:00:35.655Z,981.28
2023-03-06T09:01:35.629Z,981.35
2023-03-06T09:02:35.632Z,981.26
2023-03-06T09:03:35.605Z,981.33
2023-03-06T09:04:35.610Z,981.37
2023-03-06T09:05:35.594Z,981.31
2023-03-06T09:06:35.578Z,981.27
2023-03-06T09:07:35.572Z,981.36
2023-03-06T09:08:35.616Z,981.37
2023-03-06T09:09:35.566Z,981.31
2023-03-06T09:10:35.603Z,981.39
2023-03-06T09:11:35.550Z,981.35
2023-03-06T09:12:48.833Z,981.39
2023-03-06T09:13:37.544Z,981.41
2023-03-06T09:14:35.547Z,981.46
2023-03-06T09:15:35.518Z,981.43
2023-03-06T09:16:35.552Z,981.49
2023-03-06T09:17:35.556Z,981.46
2023-03-06T09:18:35.528Z,981.42
2023-03-06T09:19:35.504Z,981.48
2023-03-06T09:20:35.521Z,981.44
2023-03-06T09:21:35.496Z,981.45
2023-03-06T09:22:35.485Z,981.51
2023-03-06T09:23:35.471Z,981.45
2023-03-06T09:24:35.487Z,981.44
2023-03-06T09:25:35.471Z,981.49
2023-03-06T09:26:45.660Z,981.47
2023-03-06T09:27:37.477Z,981.56
2023-03-06T09:28:35.461Z,981.43
2023-03-06T09:29:35.449Z,981.53
2023-03-06T09:30:35.480Z,981.46
2023-03-06T09:31:35.423Z,981.45
2023-03-06T09:32:35.484Z,981.44
2023-03-06T09:33:35.423Z,981.51
2023-03-06T09:34:35.417Z,981.51
2023-03-06T09:35:35.455Z,981.48
2023-03-06T09:36:49.246Z,981.49
2023-03-06T09:37:37.392Z,981.42
2023-03-06T09:38:35.410Z,981.45
2023-03-06T09:39:35.372Z,981.45
2023-03-06T09:40:35.368Z,981.43
2023-03-06T09:41:35.364Z,981.48
2023-03-06T09:42:36.195Z,981.45
2023-03-06T09:43:36.348Z,981.50
2023-03-06T09:44:35.370Z,981.41
2023-03-06T09:45:35.324Z,981.37
2023-03-06T09:46:35.321Z,981.41
2023-03-06T09:47:35.317Z,981.42
2023-03-06T09:48:35.310Z,981.24
2023-03-06T09:49:35.347Z,981.28
2023-03-06T09:50:35.280Z,981.30
2023-03-06T09:51:36.290Z,981.28
2023-03-06T09:52:35.290Z,981.08
2023-03-06T09:53:35.270Z,981.15
2023-03-06T09:54:35.270Z,981.10
2023-03-06T09:55:35.291Z,981.05
2023-03-06T09:56:35.305Z,981.18
2023-03-06T09:57:35.277Z,981.25
2023-03-06T09:58:35.242Z,981.14
2023-03-06T09:59:35.233Z,981.11
2023-03-06T10:00:35.251Z,981.21
2023-03-06T10:01:35.232Z,981.21
2023-03-06T10:02:35.298Z,981.17
2023-03-06T10:03:35.217Z,981.11
2023-03-06T10:04:35.282Z,981.08
2023-03-06T10:05:35.214Z,981.10
2023-03-06T10:06:35.183Z,981.12
2023-03-06T10:07:36.189Z,981.10
2023-03-06T10:08:35.175Z,981.11
2023-03-06T10:09:35.173Z,981.17
2023-03-06T10:10:35.170Z,981.07
2023-03-06T10:11:35.180Z,981.06
2023-03-06T10:12:35.147Z,981.16
2023-03-06T10:13:35.140Z,981.17
2023-03-06T10:14:35.135Z,981.10
2023-03-06T10:15:35.148Z,981.12
2023-03-06T10:16:35.159Z,981.08
2023-03-06T10:17:35.382Z,981.04
2023-03-06T10:18:35.137Z,981.11
2023-03-06T10:19:35.113Z,981.03
2023-03-06T10:20:35.111Z,981.07
2023-03-06T10:21:35.105Z,981.06
2023-03-06T10:22:35.104Z,981.03
2023-03-06T10:23:35.069Z,981.05
2023-03-06T10:24:35.166Z,981.05
2023-03-06T10:25:35.077Z,981.06
2023-03-06T10:26:35.143Z,981.05
2023-03-06T10:27:35.088Z,981.04
2023-03-06T10:28:35.570Z,981.05
2023-03-06T10:29:36.059Z,981.08
2023-03-06T10:30:35.043Z,981.00
2023-03-06T10:31:35.041Z,981.05
2023-03-06T10:32:47.512Z,981.02
2023-03-06T10:33:37.014Z,981.03
2023-03-06T10:34:35.019Z,981.00
2023-03-06T10:35:35.015Z,981.06
2023-03-06T10:36:34.991Z,981.08
2023-03-06T10:37:36.020Z,980.99
2023-03-06T10:38:34.997Z,981.08
2023-03-06T10:39:34.972Z,981.06
2023-03-06T10:40:34.972Z,981.00
2023-03-06T10:41:34.985Z,981.01
2023-03-06T10:42:34.973Z,981.06
2023-03-06T10:43:36.403Z,981.01
2023-03-06T10:44:35.956Z,981.13
2023-03-06T10:45:48.525Z,981.12
2023-03-06T10:46:37.016Z,981.08
2023-03-06T10:47:34.927Z,981.07
2023-03-06T10:48:34.957Z,981.07
2023-03-06T10:49:35.643Z,981.06
2023-03-06T10:50:34.995Z,981.14
2023-03-06T10:51:34.907Z,981.10
2023-03-06T10:52:34.904Z,981.12
2023-03-06T10:53:34.917Z,981.11
2023-03-06T10:54:34.897Z,981.10
2023-03-06T10:55:34.874Z,981.12
2023-03-06T10:56:34.879Z,981.14
2023-03-06T10:57:34.859Z,981.21
2023-03-06T10:58:34.888Z,981.17
2023-03-06T10:59:34.854Z,981.08
2023-03-06T11:00:34.871Z,981.16
2023-03-06T11:01:34.854Z,981.23
2023-03-06T11:02:34.854Z,981.27
2023-03-06T11:03:34.977Z,981.16
2023-03-06T11:04:34.926Z,981.19
2023-03-06T11:05:34.826Z,981.23
2023-03-06T11:06:34.814Z,981.23
2023-03-06T11:07:34.810Z,981.17
2023-03-06T11:08:34.818Z,981.24
2023-03-06T11:09:34.814Z,981.20
2023-03-06T11:10:34.793Z,981.18
2023-03-06T11:11:37.721Z,981.21
2023-03-06T11:12:35.768Z,981.21
2023-03-06T11:13:34.771Z,981.26
2023-03-06T11:14:34.778Z,981.16
2023-03-06T11:15:34.759Z,981.20
2023-03-06T11:16:34.817Z,981.18
2023-03-06T11:17:34.736Z,981.14
2023-03-06T11:18:34.719Z,981.17
2023-03-06T11:19:34.730Z,981.09
2023-03-06T11:20:48.881Z,981.11
2023-03-06T11:21:36.721Z,981.08
2023-03-06T11:22:34.691Z,981.10
2023-03-06T11:23:34.721Z,981.11
2023-03-06T11:24:34.697Z,981.03
2023-03-06T11:25:34.672Z,981.10
2023-03-06T11:26:34.668Z,981.08
2023-03-06T11:27:34.781Z,981.09
2023-03-06T11:28:34.656Z,981.06
2023-03-06T11:29:36.811Z,981.11
2023-03-06T11:30:35.627Z,981.11
2023-03-06T11:31:34.681Z,981.08
2023-03-06T11:32:34.632Z,980.98
2023-03-06T11:33:34.607Z,981.06
2023-03-06T11:34:34.607Z,981.08
2023-03-06T11:35:34.638Z,981.04
2023-03-06T11:36:34.579Z,981.10
2023-03-06T11:37:34.582Z,981.03
2023-03-06T11:38:34.571Z,981.08
2023-03-06T11:39:34.578Z,981.00
2023-03-06T11:40:34.556Z,981.05
2023-03-06T11:41:34.556Z,981.05
2023-03-06T11:42:34.543Z,981.00
2023-03-06T11:43:34.534Z,981.08
2023-03-06T11:44:34.538Z,981.05
2023-03-06T11:45:34.525Z,981.07
2023-03-06T11:46:34.584Z,981.05
2023-03-06T11:47:34.504Z,981.03
2023-03-06T11:48:34.505Z,981.00
2023-03-06T11:49:34.485Z,981.06
2023-03-06T11:50:34.486Z,981.00
2023-03-06T11:51:34.498Z,980.98
2023-03-06T11:52:34.479Z,981.01
2023-03-06T11:53:34.473Z,981.07
2023-03-06T11:54:34.463Z,981.04
2023-03-06T11:55:34.454Z,981.04
2023-03-06T11:56:34.490Z,981.06
2023-03-06T11:57:34.460Z,981.03
2023-03-06T11:58:34.433Z,981.04
2023-03-06T11:59:34.426Z,981.09
2023-03-06T12:00:34.431Z,981.03
2023-03-06T12:01:34.409Z,981.04
2023-03-06T12:02:34.432Z,981.03
2023-03-06T12:03:34.412Z,981.02
2023-03-06T12:04:34.401Z,981.06
2023-03-06T12:05:34.389Z,981.04
2023-03-06T12:06:34.373Z,981.06
2023-03-06T12:07:34.397Z,980.98
2023-03-06T12:08:34.372Z,981.03
2023-03-06T12:09:34.367Z,981.00
2023-03-06T12:10:34.346Z,980.96
2023-03-06T12:11:34.345Z,981.03
2023-03-06T12:12:34.375Z,980.94
2023-03-06T12:13:34.317Z,980.97
2023-03-06T12:14:34.323Z,980.95
2023-03-06T12:15:34.322Z,980.96
2023-03-06T12:16:34.365Z,981.04
2023-03-06T12:17:34.307Z,981.02
2023-03-06T12:18:34.324Z,981.02
2023-03-06T12:19:34.298Z,981.02
2023-03-06T12:20:34.297Z,981.03
2023-03-06T12:21:34.275Z,981.05
2023-03-06T12:22:34.266Z,981.00
2023-03-06T12:23:34.271Z,981.01
2023-03-06T12:24:34.255Z,981.02
2023-03-06T12:25:34.257Z,981.07
2023-03-06T12:26:34.240Z,981.08
2023-03-06T12:27:34.269Z,981.05
2023-03-06T12:28:34.223Z,981.06
2023-03-06T12:29:34.252Z,981.04